sensor_id;sensor_type;location;lat;lon;timestamp;P1;durP1;ratioP1;P2;durP2;ratioP2
69392;SDS011;56582;44.624;20.378;2023-04-08T00:00:56;31.80;;;19.00;;
69392;SDS011;56582;44.624;20.378;2023-04-08T00:03:21;31.73;;;20.27;;
69392;SDS011;56582;44.624;20.378;2023-04-08T00:05:46;32.88;;;19.52;;
69392;SDS011;56582;44.624;20.378;2023-04-08T00:08:12;36.53;;;20.07;;
69392;SDS011;56582;44.624;20.378;2023-04-08T00:10:38;70.63;;;30.70;;
69392;SDS011;56582;44.624;20.378;2023-04-08T00:13:03;110.35;;;46.83;;
69392;SDS011;56582;44.624;20.378;2023-04-08T00:15:28;73.50;;;34.60;;
69392;SDS011;56582;44.624;20.378;2023-04-08T00:17:54;121.00;;;54.53;;
69392;SDS011;56582;44.624;20.378;2023-04-08T00:20:21;89.53;;;41.95;;
69392;SDS011;56582;44.624;20.378;2023-04-08T00:22:48;37.30;;;22.73;;
69392;SDS011;56582;44.624;20.378;2023-04-08T00:25:13;31.73;;;19.03;;
69392;SDS011;56582;44.624;20.378;2023-04-08T00:27:38;29.33;;;17.63;;
69392;SDS011;56582;44.624;20.378;2023-04-08T00:30:04;29.70;;;18.27;;
69392;SDS011;56582;44.624;20.378;2023-04-08T00:32:30;34.78;;;20.80;;
69392;SDS011;56582;44.624;20.378;2023-04-08T00:34:56;28.58;;;19.27;;
69392;SDS011;56582;44.624;20.378;2023-04-08T00:37:22;32.00;;;19.88;;
69392;SDS011;56582;44.624;20.378;2023-04-08T00:39:49;43.15;;;25.55;;
69392;SDS011;56582;44.624;20.378;2023-04-08T00:42:15;42.23;;;24.83;;
69392;SDS011;56582;44.624;20.378;2023-04-08T00:44:41;47.17;;;27.63;;
69392;SDS011;56582;44.624;20.378;2023-04-08T00:47:07;46.47;;;26.02;;
69392;SDS011;56582;44.624;20.378;2023-04-08T00:49:36;35.27;;;20.80;;
69392;SDS011;56582;44.624;20.378;2023-04-08T00:52:02;36.97;;;22.58;;
69392;SDS011;56582;44.624;20.378;2023-04-08T00:54:27;54.33;;;30.83;;
69392;SDS011;56582;44.624;20.378;2023-04-08T00:56:54;58.45;;;29.27;;
69392;SDS011;56582;44.624;20.378;2023-04-08T00:59:20;87.55;;;39.00;;
69392;SDS011;56582;44.624;20.378;2023-04-08T01:09:32;31.87;;;18.27;;
69392;SDS011;56582;44.624;20.378;2023-04-08T01:12:03;37.25;;;20.85;;
69392;SDS011;56582;44.624;20.378;2023-04-08T01:14:33;42.58;;;23.60;;
69392;SDS011;56582;44.624;20.378;2023-04-08T01:17:02;37.88;;;20.05;;
69392;SDS011;56582;44.624;20.378;2023-04-08T01:19:31;119.45;;;40.92;;
69392;SDS011;56582;44.624;20.378;2023-04-08T01:22:08;106.87;;;41.00;;
69392;SDS011;56582;44.624;20.378;2023-04-08T01:24:47;40.83;;;21.23;;
69392;SDS011;56582;44.624;20.378;2023-04-08T01:27:15;31.98;;;18.40;;
69392;SDS011;56582;44.624;20.378;2023-04-08T01:29:41;28.83;;;16.67;;
69392;SDS011;56582;44.624;20.378;2023-04-08T01:32:08;29.48;;;18.63;;
69392;SDS011;56582;44.624;20.378;2023-04-08T01:34:36;33.87;;;17.50;;
69392;SDS011;56582;44.624;20.378;2023-04-08T01:37:03;31.02;;;18.45;;
69392;SDS011;56582;44.624;20.378;2023-04-08T01:39:30;32.72;;;19.35;;
69392;SDS011;56582;44.624;20.378;2023-04-08T01:41:57;30.83;;;18.20;;
69392;SDS011;56582;44.624;20.378;2023-04-08T01:44:23;28.83;;;17.63;;
69392;SDS011;56582;44.624;20.378;2023-04-08T01:46:50;29.67;;;18.90;;
69392;SDS011;56582;44.624;20.378;2023-04-08T01:49:17;34.47;;;19.02;;
69392;SDS011;56582;44.624;20.378;2023-04-08T01:51:44;31.20;;;18.77;;
69392;SDS011;56582;44.624;20.378;2023-04-08T01:54:12;29.45;;;18.33;;
69392;SDS011;56582;44.624;20.378;2023-04-08T01:56:38;28.83;;;18.70;;
69392;SDS011;56582;44.624;20.378;2023-04-08T01:59:08;32.38;;;18.98;;
69392;SDS011;56582;44.624;20.378;2023-04-08T02:01:35;33.38;;;20.40;;
69392;SDS011;56582;44.624;20.378;2023-04-08T02:04:02;33.10;;;19.63;;
69392;SDS011;56582;44.624;20.378;2023-04-08T02:06:28;32.38;;;21.00;;
69392;SDS011;56582;44.624;20.378;2023-04-08T02:08:55;32.03;;;20.30;;
69392;SDS011;56582;44.624;20.378;2023-04-08T02:11:21;34.17;;;20.40;;
69392;SDS011;56582;44.624;20.378;2023-04-08T02:13:47;30.85;;;19.23;;
69392;SDS011;56582;44.624;20.378;2023-04-08T02:19:17;31.85;;;18.30;;
69392;SDS011;56582;44.624;20.378;2023-04-08T02:21:50;31.25;;;19.60;;
69392;SDS011;56582;44.624;20.378;2023-04-08T02:24:19;34.22;;;20.88;;
69392;SDS011;56582;44.624;20.378;2023-04-08T02:26:46;33.05;;;20.52;;
69392;SDS011;56582;44.624;20.378;2023-04-08T02:29:15;34.07;;;19.30;;
69392;SDS011;56582;44.624;20.378;2023-04-08T02:31:42;32.03;;;18.33;;
69392;SDS011;56582;44.624;20.378;2023-04-08T02:34:11;31.98;;;20.08;;
69392;SDS011;56582;44.624;20.378;2023-04-08T02:36:38;30.50;;;17.42;;
69392;SDS011;56582;44.624;20.378;2023-04-08T02:39:05;32.47;;;19.90;;
69392;SDS011;56582;44.624;20.378;2023-04-08T02:41:30;33.60;;;19.67;;
69392;SDS011;56582;44.624;20.378;2023-04-08T02:43:56;35.20;;;21.10;;
69392;SDS011;56582;44.624;20.378;2023-04-08T02:46:22;33.60;;;20.30;;
69392;SDS011;56582;44.624;20.378;2023-04-08T02:48:47;30.90;;;19.15;;
69392;SDS011;56582;44.624;20.378;2023-04-08T02:51:13;29.13;;;18.77;;
69392;SDS011;56582;44.624;20.378;2023-04-08T02:53:38;32.80;;;20.80;;
69392;SDS011;56582;44.624;20.378;2023-04-08T02:56:04;37.08;;;21.65;;
69392;SDS011;56582;44.624;20.378;2023-04-08T02:58:30;31.33;;;20.20;;
69392;SDS011;56582;44.624;20.378;2023-04-08T03:00:55;34.87;;;21.13;;
69392;SDS011;56582;44.624;20.378;2023-04-08T03:03:21;31.90;;;19.55;;
69392;SDS011;56582;44.624;20.378;2023-04-08T03:05:53;38.45;;;21.23;;
69392;SDS011;56582;44.624;20.378;2023-04-08T03:08:22;36.50;;;21.10;;
69392;SDS011;56582;44.624;20.378;2023-04-08T03:10:48;34.67;;;20.92;;
69392;SDS011;56582;44.624;20.378;2023-04-08T03:13:13;37.20;;;21.17;;
69392;SDS011;56582;44.624;20.378;2023-04-08T03:15:40;32.15;;;21.45;;
69392;SDS011;56582;44.624;20.378;2023-04-08T03:18:05;33.10;;;21.40;;
69392;SDS011;56582;44.624;20.378;2023-04-08T03:20:31;33.03;;;19.33;;
69392;SDS011;56582;44.624;20.378;2023-04-08T03:22:56;34.17;;;20.93;;
69392;SDS011;56582;44.624;20.378;2023-04-08T03:25:22;37.57;;;22.63;;
69392;SDS011;56582;44.624;20.378;2023-04-08T03:27:47;31.27;;;18.77;;
69392;SDS011;56582;44.624;20.378;2023-04-08T03:30:13;34.27;;;20.40;;
69392;SDS011;56582;44.624;20.378;2023-04-08T03:32:38;36.90;;;21.17;;
69392;SDS011;56582;44.624;20.378;2023-04-08T03:35:04;34.63;;;21.43;;
69392;SDS011;56582;44.624;20.378;2023-04-08T03:37:30;34.33;;;20.80;;
69392;SDS011;56582;44.624;20.378;2023-04-08T03:39:56;33.00;;;20.98;;
69392;SDS011;56582;44.624;20.378;2023-04-08T03:42:22;35.10;;;21.23;;
69392;SDS011;56582;44.624;20.378;2023-04-08T03:44:47;38.70;;;22.70;;
69392;SDS011;56582;44.624;20.378;2023-04-08T03:47:13;34.73;;;20.80;;
69392;SDS011;56582;44.624;20.378;2023-04-08T03:49:38;32.70;;;20.07;;
69392;SDS011;56582;44.624;20.378;2023-04-08T03:52:03;33.85;;;21.23;;
69392;SDS011;56582;44.624;20.378;2023-04-08T03:54:29;33.33;;;21.67;;
69392;SDS011;56582;44.624;20.378;2023-04-08T03:56:54;36.17;;;22.17;;
69392;SDS011;56582;44.624;20.378;2023-04-08T03:59:20;34.23;;;20.87;;
69392;SDS011;56582;44.624;20.378;2023-04-08T04:01:45;39.10;;;22.80;;
69392;SDS011;56582;44.624;20.378;2023-04-08T04:04:11;38.27;;;21.80;;
69392;SDS011;56582;44.624;20.378;2023-04-08T04:06:37;35.13;;;20.83;;
69392;SDS011;56582;44.624;20.378;2023-04-08T04:09:02;34.13;;;21.20;;
69392;SDS011;56582;44.624;20.378;2023-04-08T04:11:28;38.47;;;22.00;;
69392;SDS011;56582;44.624;20.378;2023-04-08T04:13:53;35.55;;;20.00;;
69392;SDS011;56582;44.624;20.378;2023-04-08T04:16:19;36.70;;;20.67;;
69392;SDS011;56582;44.624;20.378;2023-04-08T04:18:44;35.17;;;22.30;;
69392;SDS011;56582;44.624;20.378;2023-04-08T04:21:09;38.17;;;22.93;;
69392;SDS011;56582;44.624;20.378;2023-04-08T04:23:36;35.83;;;21.25;;
69392;SDS011;56582;44.624;20.378;2023-04-08T04:26:06;35.73;;;20.93;;
69392;SDS011;56582;44.624;20.378;2023-04-08T04:28:32;35.40;;;21.50;;
69392;SDS011;56582;44.624;20.378;2023-04-08T04:30:57;35.07;;;21.77;;
69392;SDS011;56582;44.624;20.378;2023-04-08T04:33:23;33.30;;;20.45;;
69392;SDS011;56582;44.624;20.378;2023-04-08T04:35:48;34.53;;;19.70;;
69392;SDS011;56582;44.624;20.378;2023-04-08T04:38:14;32.50;;;20.03;;
69392;SDS011;56582;44.624;20.378;2023-04-08T04:40:40;35.30;;;20.83;;
69392;SDS011;56582;44.624;20.378;2023-04-08T04:43:05;35.03;;;21.63;;
69392;SDS011;56582;44.624;20.378;2023-04-08T04:45:31;43.40;;;26.35;;
69392;SDS011;56582;44.624;20.378;2023-04-08T04:47:56;37.77;;;23.20;;
69392;SDS011;56582;44.624;20.378;2023-04-08T04:50:22;34.23;;;22.10;;
69392;SDS011;56582;44.624;20.378;2023-04-08T04:52:47;34.72;;;20.80;;
69392;SDS011;56582;44.624;20.378;2023-04-08T04:55:13;30.87;;;19.87;;
69392;SDS011;56582;44.624;20.378;2023-04-08T04:57:39;30.38;;;19.13;;
69392;SDS011;56582;44.624;20.378;2023-04-08T05:00:05;34.83;;;21.10;;
69392;SDS011;56582;44.624;20.378;2023-04-08T05:02:32;36.08;;;21.20;;
69392;SDS011;56582;44.624;20.378;2023-04-08T05:04:58;32.17;;;20.53;;
69392;SDS011;56582;44.624;20.378;2023-04-08T05:07:23;31.97;;;21.97;;
69392;SDS011;56582;44.624;20.378;2023-04-08T05:09:48;33.20;;;21.90;;
69392;SDS011;56582;44.624;20.378;2023-04-08T05:12:14;34.80;;;20.83;;
69392;SDS011;56582;44.624;20.378;2023-04-08T05:14:40;31.80;;;20.37;;
69392;SDS011;56582;44.624;20.378;2023-04-08T05:17:06;35.22;;;20.90;;
69392;SDS011;56582;44.624;20.378;2023-04-08T05:19:31;33.73;;;21.20;;
69392;SDS011;56582;44.624;20.378;2023-04-08T05:21:57;36.20;;;23.00;;
69392;SDS011;56582;44.624;20.378;2023-04-08T05:24:22;45.93;;;26.30;;
69392;SDS011;56582;44.624;20.378;2023-04-08T05:26:48;46.37;;;24.30;;
69392;SDS011;56582;44.624;20.378;2023-04-08T05:29:17;45.67;;;24.63;;
69392;SDS011;56582;44.624;20.378;2023-04-08T05:31:43;57.60;;;31.20;;
69392;SDS011;56582;44.624;20.378;2023-04-08T05:34:09;61.08;;;32.47;;
69392;SDS011;56582;44.624;20.378;2023-04-08T05:36:35;53.25;;;29.30;;
69392;SDS011;56582;44.624;20.378;2023-04-08T05:39:01;47.97;;;26.38;;
69392;SDS011;56582;44.624;20.378;2023-04-08T05:41:26;46.37;;;26.00;;
69392;SDS011;56582;44.624;20.378;2023-04-08T05:43:52;44.27;;;24.93;;
69392;SDS011;56582;44.624;20.378;2023-04-08T05:46:17;42.40;;;25.00;;
69392;SDS011;56582;44.624;20.378;2023-04-08T05:48:43;40.70;;;24.47;;
69392;SDS011;56582;44.624;20.378;2023-04-08T05:51:14;44.80;;;25.60;;
69392;SDS011;56582;44.624;20.378;2023-04-08T05:53:41;41.20;;;25.48;;
69392;SDS011;56582;44.624;20.378;2023-04-08T05:56:09;43.50;;;24.92;;
69392;SDS011;56582;44.624;20.378;2023-04-08T05:58:34;41.97;;;25.60;;
69392;SDS011;56582;44.624;20.378;2023-04-08T06:00:59;45.40;;;25.57;;
69392;SDS011;56582;44.624;20.378;2023-04-08T06:03:25;39.78;;;24.90;;
69392;SDS011;56582;44.624;20.378;2023-04-08T06:05:50;40.33;;;24.03;;
69392;SDS011;56582;44.624;20.378;2023-04-08T06:08:16;44.90;;;27.10;;
69392;SDS011;56582;44.624;20.378;2023-04-08T06:10:47;40.40;;;23.90;;
69392;SDS011;56582;44.624;20.378;2023-04-08T06:13:16;41.78;;;22.95;;
69392;SDS011;56582;44.624;20.378;2023-04-08T06:15:41;41.60;;;24.33;;
69392;SDS011;56582;44.624;20.378;2023-04-08T06:18:07;39.47;;;23.27;;
69392;SDS011;56582;44.624;20.378;2023-04-08T06:20:32;35.73;;;23.80;;
69392;SDS011;56582;44.624;20.378;2023-04-08T06:22:59;36.70;;;23.20;;
69392;SDS011;56582;44.624;20.378;2023-04-08T06:25:25;38.00;;;24.60;;
69392;SDS011;56582;44.624;20.378;2023-04-08T06:27:50;41.15;;;23.85;;
69392;SDS011;56582;44.624;20.378;2023-04-08T06:30:15;38.77;;;23.13;;
69392;SDS011;56582;44.624;20.378;2023-04-08T06:32:41;39.07;;;22.93;;
69392;SDS011;56582;44.624;20.378;2023-04-08T06:35:06;37.80;;;22.00;;
69392;SDS011;56582;44.624;20.378;2023-04-08T06:37:32;36.25;;;23.23;;
69392;SDS011;56582;44.624;20.378;2023-04-08T06:40:02;39.08;;;23.00;;
69392;SDS011;56582;44.624;20.378;2023-04-08T06:42:31;39.78;;;23.15;;
69392;SDS011;56582;44.624;20.378;2023-04-08T06:44:57;39.47;;;24.03;;
69392;SDS011;56582;44.624;20.378;2023-04-08T06:47:22;39.63;;;25.03;;
69392;SDS011;56582;44.624;20.378;2023-04-08T06:49:48;39.15;;;24.42;;
69392;SDS011;56582;44.624;20.378;2023-04-08T06:52:13;40.70;;;25.27;;
69392;SDS011;56582;44.624;20.378;2023-04-08T06:54:39;38.17;;;24.10;;
69392;SDS011;56582;44.624;20.378;2023-04-08T06:57:05;38.83;;;24.93;;
69392;SDS011;56582;44.624;20.378;2023-04-08T06:59:31;42.97;;;26.00;;
69392;SDS011;56582;44.624;20.378;2023-04-08T07:01:56;47.93;;;27.93;;
69392;SDS011;56582;44.624;20.378;2023-04-08T07:04:21;45.70;;;29.67;;
69392;SDS011;56582;44.624;20.378;2023-04-08T07:06:47;43.20;;;28.70;;
69392;SDS011;56582;44.624;20.378;2023-04-08T07:09:16;42.73;;;26.03;;
69392;SDS011;56582;44.624;20.378;2023-04-08T07:11:41;40.13;;;24.92;;
69392;SDS011;56582;44.624;20.378;2023-04-08T07:14:10;41.90;;;24.73;;
69392;SDS011;56582;44.624;20.378;2023-04-08T07:16:36;43.97;;;25.77;;
69392;SDS011;56582;44.624;20.378;2023-04-08T07:19:01;40.53;;;24.93;;
69392;SDS011;56582;44.624;20.378;2023-04-08T07:21:26;45.47;;;27.90;;
69392;SDS011;56582;44.624;20.378;2023-04-08T07:23:52;44.27;;;27.67;;
69392;SDS011;56582;44.624;20.378;2023-04-08T07:26:17;50.47;;;26.33;;
69392;SDS011;56582;44.624;20.378;2023-04-08T07:28:43;51.37;;;31.63;;
69392;SDS011;56582;44.624;20.378;2023-04-08T07:31:15;44.85;;;26.83;;
69392;SDS011;56582;44.624;20.378;2023-04-08T07:33:41;44.30;;;26.85;;
69392;SDS011;56582;44.624;20.378;2023-04-08T07:36:08;52.90;;;26.27;;
69392;SDS011;56582;44.624;20.378;2023-04-08T07:38:34;47.38;;;27.13;;
69392;SDS011;56582;44.624;20.378;2023-04-08T07:41:00;46.88;;;27.80;;
69392;SDS011;56582;44.624;20.378;2023-04-08T07:43:25;43.43;;;26.73;;
69392;SDS011;56582;44.624;20.378;2023-04-08T07:45:51;47.45;;;27.90;;
69392;SDS011;56582;44.624;20.378;2023-04-08T07:48:17;44.80;;;26.77;;
69392;SDS011;56582;44.624;20.378;2023-04-08T07:50:42;48.53;;;29.13;;
69392;SDS011;56582;44.624;20.378;2023-04-08T07:53:09;46.25;;;28.60;;
69392;SDS011;56582;44.624;20.378;2023-04-08T07:55:35;56.03;;;33.87;;
69392;SDS011;56582;44.624;20.378;2023-04-08T07:58:00;48.97;;;27.88;;
69392;SDS011;56582;44.624;20.378;2023-04-08T08:00:26;28.70;;;17.70;;
69392;SDS011;56582;44.624;20.378;2023-04-08T08:02:54;37.40;;;23.00;;
69392;SDS011;56582;44.624;20.378;2023-04-08T08:05:19;33.40;;;20.70;;
69392;SDS011;56582;44.624;20.378;2023-04-08T08:07:45;34.73;;;21.60;;
69392;SDS011;56582;44.624;20.378;2023-04-08T08:10:10;39.55;;;26.30;;
69392;SDS011;56582;44.624;20.378;2023-04-08T08:12:36;42.13;;;27.50;;
69392;SDS011;56582;44.624;20.378;2023-04-08T08:15:02;42.70;;;27.13;;
69392;SDS011;56582;44.624;20.378;2023-04-08T08:17:27;42.33;;;26.90;;
69392;SDS011;56582;44.624;20.378;2023-04-08T08:19:55;39.45;;;25.33;;
69392;SDS011;56582;44.624;20.378;2023-04-08T08:22:21;39.60;;;26.13;;
69392;SDS011;56582;44.624;20.378;2023-04-08T08:24:46;36.50;;;25.30;;
69392;SDS011;56582;44.624;20.378;2023-04-08T08:27:12;37.53;;;24.33;;
69392;SDS011;56582;44.624;20.378;2023-04-08T08:29:37;41.50;;;24.25;;
69392;SDS011;56582;44.624;20.378;2023-04-08T08:32:03;41.20;;;25.07;;
69392;SDS011;56582;44.624;20.378;2023-04-08T08:34:29;40.47;;;24.80;;
69392;SDS011;56582;44.624;20.378;2023-04-08T08:36:54;42.77;;;25.93;;
69392;SDS011;56582;44.624;20.378;2023-04-08T08:39:21;52.03;;;33.47;;
69392;SDS011;56582;44.624;20.378;2023-04-08T08:41:46;44.15;;;25.92;;
69392;SDS011;56582;44.624;20.378;2023-04-08T08:44:12;44.80;;;28.50;;
69392;SDS011;56582;44.624;20.378;2023-04-08T08:46:44;41.47;;;26.35;;
69392;SDS011;56582;44.624;20.378;2023-04-08T08:49:12;43.80;;;27.65;;
69392;SDS011;56582;44.624;20.378;2023-04-08T08:51:40;43.20;;;27.40;;
69392;SDS011;56582;44.624;20.378;2023-04-08T08:54:10;47.90;;;29.85;;
69392;SDS011;56582;44.624;20.378;2023-04-08T08:56:35;52.67;;;32.93;;
69392;SDS011;56582;44.624;20.378;2023-04-08T08:59:01;48.10;;;29.35;;
69392;SDS011;56582;44.624;20.378;2023-04-08T09:01:36;50.83;;;30.83;;
69392;SDS011;56582;44.624;20.378;2023-04-08T09:04:14;50.00;;;29.58;;
69392;SDS011;56582;44.624;20.378;2023-04-08T09:06:44;49.83;;;28.85;;
69392;SDS011;56582;44.624;20.378;2023-04-08T09:09:10;47.40;;;30.17;;
69392;SDS011;56582;44.624;20.378;2023-04-08T09:11:37;42.70;;;26.95;;
69392;SDS011;56582;44.624;20.378;2023-04-08T09:14:15;43.97;;;27.33;;
69392;SDS011;56582;44.624;20.378;2023-04-08T09:16:42;50.22;;;29.23;;
69392;SDS011;56582;44.624;20.378;2023-04-08T09:19:08;46.55;;;28.40;;
69392;SDS011;56582;44.624;20.378;2023-04-08T09:21:35;58.28;;;36.40;;
69392;SDS011;56582;44.624;20.378;2023-04-08T09:24:01;42.55;;;27.15;;
69392;SDS011;56582;44.624;20.378;2023-04-08T09:26:27;54.53;;;32.13;;
69392;SDS011;56582;44.624;20.378;2023-04-08T09:28:56;58.67;;;35.77;;
69392;SDS011;56582;44.624;20.378;2023-04-08T09:31:23;49.80;;;30.23;;
69392;SDS011;56582;44.624;20.378;2023-04-08T09:33:51;46.42;;;26.42;;
69392;SDS011;56582;44.624;20.378;2023-04-08T09:36:34;41.38;;;25.25;;
69392;SDS011;56582;44.624;20.378;2023-04-08T09:39:00;42.63;;;25.50;;
69392;SDS011;56582;44.624;20.378;2023-04-08T09:41:25;46.83;;;28.80;;
69392;SDS011;56582;44.624;20.378;2023-04-08T09:43:53;42.30;;;26.55;;
69392;SDS011;56582;44.624;20.378;2023-04-08T09:52:09;45.05;;;28.70;;
69392;SDS011;56582;44.624;20.378;2023-04-08T09:54:43;40.33;;;24.63;;
69392;SDS011;56582;44.624;20.378;2023-04-08T09:57:21;50.30;;;29.27;;
69392;SDS011;56582;44.624;20.378;2023-04-08T09:59:56;41.50;;;26.63;;
69392;SDS011;56582;44.624;20.378;2023-04-08T10:05:47;44.97;;;28.55;;
69392;SDS011;56582;44.624;20.378;2023-04-08T10:08:22;35.23;;;21.67;;
69392;SDS011;56582;44.624;20.378;2023-04-08T10:10:55;35.78;;;22.15;;
69392;SDS011;56582;44.624;20.378;2023-04-08T10:13:21;34.50;;;21.08;;
69392;SDS011;56582;44.624;20.378;2023-04-08T10:15:47;37.10;;;22.92;;
69392;SDS011;56582;44.624;20.378;2023-04-08T10:20:46;39.75;;;24.80;;
69392;SDS011;56582;44.624;20.378;2023-04-08T10:23:16;36.95;;;21.13;;
69392;SDS011;56582;44.624;20.378;2023-04-08T10:25:46;34.07;;;20.33;;
69392;SDS011;56582;44.624;20.378;2023-04-08T10:33:10;44.55;;;26.25;;
69392;SDS011;56582;44.624;20.378;2023-04-08T10:35:41;39.72;;;26.10;;
69392;SDS011;56582;44.624;20.378;2023-04-08T10:38:10;38.70;;;22.37;;
69392;SDS011;56582;44.624;20.378;2023-04-08T10:40:37;38.92;;;23.92;;
69392;SDS011;56582;44.624;20.378;2023-04-08T10:43:05;32.55;;;21.90;;
69392;SDS011;56582;44.624;20.378;2023-04-08T10:45:31;38.90;;;24.88;;
69392;SDS011;56582;44.624;20.378;2023-04-08T10:47:56;37.03;;;23.13;;
69392;SDS011;56582;44.624;20.378;2023-04-08T10:50:59;39.60;;;25.73;;
69392;SDS011;56582;44.624;20.378;2023-04-08T10:53:35;35.28;;;21.92;;
69392;SDS011;56582;44.624;20.378;2023-04-08T10:56:07;40.15;;;23.42;;
69392;SDS011;56582;44.624;20.378;2023-04-08T10:58:47;34.83;;;20.60;;
69392;SDS011;56582;44.624;20.378;2023-04-08T11:01:14;38.45;;;23.05;;
69392;SDS011;56582;44.624;20.378;2023-04-08T11:03:40;33.07;;;21.87;;
69392;SDS011;56582;44.624;20.378;2023-04-08T11:06:06;34.20;;;21.37;;
69392;SDS011;56582;44.624;20.378;2023-04-08T11:08:32;35.85;;;22.45;;
69392;SDS011;56582;44.624;20.378;2023-04-08T11:10:59;36.05;;;21.83;;
69392;SDS011;56582;44.624;20.378;2023-04-08T11:13:29;61.77;;;37.10;;
69392;SDS011;56582;44.624;20.378;2023-04-08T11:15:55;41.72;;;25.13;;
69392;SDS011;56582;44.624;20.378;2023-04-08T11:18:23;34.90;;;21.40;;
69392;SDS011;56582;44.624;20.378;2023-04-08T11:20:49;33.70;;;20.65;;
69392;SDS011;56582;44.624;20.378;2023-04-08T11:23:15;33.45;;;21.63;;
69392;SDS011;56582;44.624;20.378;2023-04-08T11:25:41;36.23;;;22.47;;
69392;SDS011;56582;44.624;20.378;2023-04-08T11:28:08;36.83;;;22.77;;
69392;SDS011;56582;44.624;20.378;2023-04-08T11:30:33;34.80;;;19.33;;
69392;SDS011;56582;44.624;20.378;2023-04-08T11:32:59;54.63;;;29.13;;
69392;SDS011;56582;44.624;20.378;2023-04-08T11:35:28;34.63;;;22.25;;
69392;SDS011;56582;44.624;20.378;2023-04-08T11:37:55;41.83;;;25.63;;
69392;SDS011;56582;44.624;20.378;2023-04-08T11:40:21;35.30;;;21.47;;
69392;SDS011;56582;44.624;20.378;2023-04-08T11:42:47;34.03;;;20.60;;
69392;SDS011;56582;44.624;20.378;2023-04-08T11:45:14;36.90;;;23.75;;
69392;SDS011;56582;44.624;20.378;2023-04-08T11:47:41;38.15;;;23.45;;
69392;SDS011;56582;44.624;20.378;2023-04-08T11:50:07;34.03;;;22.77;;
69392;SDS011;56582;44.624;20.378;2023-04-08T11:52:48;39.07;;;25.13;;
69392;SDS011;56582;44.624;20.378;2023-04-08T11:55:25;35.85;;;24.05;;
69392;SDS011;56582;44.624;20.378;2023-04-08T11:57:53;47.95;;;30.98;;
69392;SDS011;56582;44.624;20.378;2023-04-08T12:00:19;51.20;;;25.63;;
69392;SDS011;56582;44.624;20.378;2023-04-08T12:02:46;34.42;;;22.40;;
69392;SDS011;56582;44.624;20.378;2023-04-08T12:05:15;40.73;;;25.93;;
69392;SDS011;56582;44.624;20.378;2023-04-08T12:07:41;36.55;;;23.80;;
69392;SDS011;56582;44.624;20.378;2023-04-08T12:10:08;35.15;;;22.30;;
69392;SDS011;56582;44.624;20.378;2023-04-08T12:12:34;37.63;;;22.58;;
69392;SDS011;56582;44.624;20.378;2023-04-08T12:15:00;37.13;;;23.60;;
69392;SDS011;56582;44.624;20.378;2023-04-08T12:17:25;37.23;;;22.87;;
69392;SDS011;56582;44.624;20.378;2023-04-08T12:19:51;36.05;;;21.33;;
69392;SDS011;56582;44.624;20.378;2023-04-08T12:22:16;35.93;;;22.20;;
69392;SDS011;56582;44.624;20.378;2023-04-08T12:24:42;62.20;;;35.80;;
69392;SDS011;56582;44.624;20.378;2023-04-08T12:27:07;56.53;;;33.63;;
69392;SDS011;56582;44.624;20.378;2023-04-08T12:29:32;42.10;;;27.03;;
69392;SDS011;56582;44.624;20.378;2023-04-08T12:31:58;49.13;;;28.80;;
69392;SDS011;56582;44.624;20.378;2023-04-08T12:34:24;34.75;;;22.17;;
69392;SDS011;56582;44.624;20.378;2023-04-08T12:36:49;34.67;;;21.87;;
69392;SDS011;56582;44.624;20.378;2023-04-08T12:39:15;34.53;;;22.33;;
69392;SDS011;56582;44.624;20.378;2023-04-08T12:41:40;38.45;;;25.10;;
69392;SDS011;56582;44.624;20.378;2023-04-08T12:44:06;41.63;;;25.70;;
69392;SDS011;56582;44.624;20.378;2023-04-08T12:46:31;49.20;;;26.13;;
69392;SDS011;56582;44.624;20.378;2023-04-08T12:48:57;35.50;;;22.90;;
69392;SDS011;56582;44.624;20.378;2023-04-08T12:51:22;34.20;;;22.73;;
69392;SDS011;56582;44.624;20.378;2023-04-08T12:53:50;35.85;;;22.83;;
69392;SDS011;56582;44.624;20.378;2023-04-08T12:56:15;43.77;;;25.80;;
69392;SDS011;56582;44.624;20.378;2023-04-08T12:58:41;36.80;;;23.48;;
69392;SDS011;56582;44.624;20.378;2023-04-08T13:01:06;34.67;;;22.67;;
69392;SDS011;56582;44.624;20.378;2023-04-08T13:03:32;43.90;;;25.70;;
69392;SDS011;56582;44.624;20.378;2023-04-08T13:05:58;38.50;;;24.35;;
69392;SDS011;56582;44.624;20.378;2023-04-08T13:08:33;35.40;;;22.93;;
69392;SDS011;56582;44.624;20.378;2023-04-08T13:10:59;36.13;;;22.38;;
69392;SDS011;56582;44.624;20.378;2023-04-08T13:13:24;42.75;;;26.00;;
69392;SDS011;56582;44.624;20.378;2023-04-08T13:15:50;38.87;;;25.07;;
69392;SDS011;56582;44.624;20.378;2023-04-08T13:18:16;41.75;;;26.25;;
69392;SDS011;56582;44.624;20.378;2023-04-08T13:20:41;44.13;;;27.73;;
69392;SDS011;56582;44.624;20.378;2023-04-08T13:23:07;38.97;;;24.43;;
69392;SDS011;56582;44.624;20.378;2023-04-08T13:25:32;50.65;;;29.88;;
69392;SDS011;56582;44.624;20.378;2023-04-08T13:27:58;34.70;;;22.57;;
69392;SDS011;56582;44.624;20.378;2023-04-08T13:30:23;60.13;;;32.10;;
69392;SDS011;56582;44.624;20.378;2023-04-08T13:32:49;40.08;;;25.48;;
69392;SDS011;56582;44.624;20.378;2023-04-08T13:35:14;41.43;;;22.93;;
69392;SDS011;56582;44.624;20.378;2023-04-08T13:37:40;38.27;;;23.43;;
69392;SDS011;56582;44.624;20.378;2023-04-08T13:40:06;35.28;;;23.70;;
69392;SDS011;56582;44.624;20.378;2023-04-08T13:42:32;57.80;;;31.88;;
69392;SDS011;56582;44.624;20.378;2023-04-08T13:44:58;37.70;;;25.13;;
69392;SDS011;56582;44.624;20.378;2023-04-08T13:47:24;38.90;;;24.27;;
69392;SDS011;56582;44.624;20.378;2023-04-08T13:49:49;33.70;;;21.77;;
69392;SDS011;56582;44.624;20.378;2023-04-08T13:52:15;42.28;;;26.85;;
69392;SDS011;56582;44.624;20.378;2023-04-08T13:54:41;43.47;;;26.38;;
69392;SDS011;56582;44.624;20.378;2023-04-08T13:57:06;35.03;;;23.00;;
69392;SDS011;56582;44.624;20.378;2023-04-08T13:59:32;39.50;;;24.83;;
69392;SDS011;56582;44.624;20.378;2023-04-08T14:01:57;37.67;;;23.73;;
69392;SDS011;56582;44.624;20.378;2023-04-08T14:04:23;37.30;;;23.83;;
69392;SDS011;56582;44.624;20.378;2023-04-08T14:06:48;42.43;;;25.40;;
69392;SDS011;56582;44.624;20.378;2023-04-08T14:09:16;34.83;;;22.00;;
69392;SDS011;56582;44.624;20.378;2023-04-08T14:11:42;39.20;;;22.83;;
69392;SDS011;56582;44.624;20.378;2023-04-08T14:14:07;34.63;;;21.00;;
69392;SDS011;56582;44.624;20.378;2023-04-08T14:16:33;38.10;;;21.27;;
69392;SDS011;56582;44.624;20.378;2023-04-08T14:18:59;37.72;;;23.23;;
69392;SDS011;56582;44.624;20.378;2023-04-08T14:21:25;36.47;;;23.63;;
69392;SDS011;56582;44.624;20.378;2023-04-08T14:23:50;40.27;;;23.03;;
69392;SDS011;56582;44.624;20.378;2023-04-08T14:26:16;37.90;;;22.13;;
69392;SDS011;56582;44.624;20.378;2023-04-08T14:28:42;34.00;;;22.03;;
69392;SDS011;56582;44.624;20.378;2023-04-08T14:31:07;32.93;;;19.80;;
69392;SDS011;56582;44.624;20.378;2023-04-08T14:33:32;32.73;;;21.17;;